sensor_id;sensor_type;location;lat;lon;timestamp;P1;durP1;ratioP1;P2;durP2;ratioP2
13485;SDS011;6815;59.336;17.998;2023-06-10T00:01:26;3.97;;;0.70;;
13485;SDS011;6815;59.336;17.998;2023-06-10T00:03:52;2.03;;;0.90;;
13485;SDS011;6815;59.336;17.998;2023-06-10T00:06:18;1.40;;;0.70;;
13485;SDS011;6815;59.336;17.998;2023-06-10T00:08:43;2.07;;;0.60;;
13485;SDS011;6815;59.336;17.998;2023-06-10T00:11:09;1.83;;;0.60;;
13485;SDS011;6815;59.336;17.998;2023-06-10T00:13:35;0.80;;;0.63;;
13485;SDS011;6815;59.336;17.998;2023-06-10T00:16:00;3.20;;;0.83;;
13485;SDS011;6815;59.336;17.998;2023-06-10T00:18:26;1.73;;;0.60;;
13485;SDS011;6815;59.336;17.998;2023-06-10T00:20:52;0.80;;;0.60;;
13485;SDS011;6815;59.336;17.998;2023-06-10T00:23:20;1.23;;;1.07;;
13485;SDS011;6815;59.336;17.998;2023-06-10T00:25:46;1.30;;;0.77;;
13485;SDS011;6815;59.336;17.998;2023-06-10T00:28:11;2.67;;;0.90;;
13485;SDS011;6815;59.336;17.998;2023-06-10T00:30:38;1.33;;;0.90;;
13485;SDS011;6815;59.336;17.998;2023-06-10T00:33:03;2.73;;;1.00;;
13485;SDS011;6815;59.336;17.998;2023-06-10T00:35:29;4.30;;;0.80;;
13485;SDS011;6815;59.336;17.998;2023-06-10T00:37:55;0.83;;;0.70;;
13485;SDS011;6815;59.336;17.998;2023-06-10T00:40:20;1.40;;;0.80;;
13485;SDS011;6815;59.336;17.998;2023-06-10T00:42:45;1.50;;;0.73;;
13485;SDS011;6815;59.336;17.998;2023-06-10T00:45:11;1.77;;;0.80;;
13485;SDS011;6815;59.336;17.998;2023-06-10T00:47:36;1.23;;;0.57;;
13485;SDS011;6815;59.336;17.998;2023-06-10T00:50:02;0.60;;;0.60;;
13485;SDS011;6815;59.336;17.998;2023-06-10T00:52:29;3.07;;;0.70;;
13485;SDS011;6815;59.336;17.998;2023-06-10T00:54:55;0.97;;;0.77;;
13485;SDS011;6815;59.336;17.998;2023-06-10T00:57:21;2.87;;;0.80;;
13485;SDS011;6815;59.336;17.998;2023-06-10T00:59:47;1.73;;;0.67;;
13485;SDS011;6815;59.336;17.998;2023-06-10T01:02:14;1.70;;;0.93;;
13485;SDS011;6815;59.336;17.998;2023-06-10T01:04:39;1.43;;;0.83;;
13485;SDS011;6815;59.336;17.998;2023-06-10T01:07:21;7.33;;;1.10;;
13485;SDS011;6815;59.336;17.998;2023-06-10T01:10:01;3.23;;;1.10;;
13485;SDS011;6815;59.336;17.998;2023-06-10T01:15:17;3.53;;;1.33;;
13485;SDS011;6815;59.336;17.998;2023-06-10T01:17:55;2.60;;;0.97;;
13485;SDS011;6815;59.336;17.998;2023-06-10T01:20:34;4.40;;;1.20;;
13485;SDS011;6815;59.336;17.998;2023-06-10T01:23:02;1.90;;;1.10;;
13485;SDS011;6815;59.336;17.998;2023-06-10T01:25:28;3.67;;;1.47;;
13485;SDS011;6815;59.336;17.998;2023-06-10T01:33:17;3.53;;;1.67;;
13485;SDS011;6815;59.336;17.998;2023-06-10T01:35:50;2.37;;;1.20;;
13485;SDS011;6815;59.336;17.998;2023-06-10T01:38:16;4.00;;;1.50;;
13485;SDS011;6815;59.336;17.998;2023-06-10T01:40:44;3.23;;;1.23;;
13485;SDS011;6815;59.336;17.998;2023-06-10T01:43:11;2.57;;;1.33;;
13485;SDS011;6815;59.336;17.998;2023-06-10T01:45:37;2.00;;;1.20;;
13485;SDS011;6815;59.336;17.998;2023-06-10T01:48:02;1.83;;;1.30;;
13485;SDS011;6815;59.336;17.998;2023-06-10T01:50:28;4.43;;;1.20;;
13485;SDS011;6815;59.336;17.998;2023-06-10T01:52:53;3.03;;;1.23;;
13485;SDS011;6815;59.336;17.998;2023-06-10T01:55:18;3.60;;;1.67;;
13485;SDS011;6815;59.336;17.998;2023-06-10T01:57:44;3.77;;;1.00;;
13485;SDS011;6815;59.336;17.998;2023-06-10T02:00:09;2.10;;;1.57;;
13485;SDS011;6815;59.336;17.998;2023-06-10T02:02:35;3.47;;;1.20;;
13485;SDS011;6815;59.336;17.998;2023-06-10T02:05:01;3.83;;;0.90;;
13485;SDS011;6815;59.336;17.998;2023-06-10T02:07:26;2.10;;;1.10;;
13485;SDS011;6815;59.336;17.998;2023-06-10T02:09:52;5.07;;;1.23;;
13485;SDS011;6815;59.336;17.998;2023-06-10T02:12:17;3.67;;;1.00;;
13485;SDS011;6815;59.336;17.998;2023-06-10T02:14:42;5.60;;;1.03;;
13485;SDS011;6815;59.336;17.998;2023-06-10T02:17:08;3.07;;;0.90;;
13485;SDS011;6815;59.336;17.998;2023-06-10T02:19:37;1.60;;;0.93;;
13485;SDS011;6815;59.336;17.998;2023-06-10T02:22:07;3.37;;;1.00;;
13485;SDS011;6815;59.336;17.998;2023-06-10T02:24:32;3.77;;;1.30;;
13485;SDS011;6815;59.336;17.998;2023-06-10T02:26:57;2.40;;;1.10;;
13485;SDS011;6815;59.336;17.998;2023-06-10T02:29:25;4.60;;;1.40;;
13485;SDS011;6815;59.336;17.998;2023-06-10T02:31:50;2.17;;;0.83;;
13485;SDS011;6815;59.336;17.998;2023-06-10T02:34:17;6.17;;;1.00;;
13485;SDS011;6815;59.336;17.998;2023-06-10T02:36:43;2.30;;;1.00;;
13485;SDS011;6815;59.336;17.998;2023-06-10T02:39:09;2.93;;;1.30;;
13485;SDS011;6815;59.336;17.998;2023-06-10T02:41:34;2.23;;;1.20;;
13485;SDS011;6815;59.336;17.998;2023-06-10T02:44:00;2.77;;;1.20;;
13485;SDS011;6815;59.336;17.998;2023-06-10T02:46:26;2.10;;;1.10;;
13485;SDS011;6815;59.336;17.998;2023-06-10T02:48:53;2.83;;;1.30;;
13485;SDS011;6815;59.336;17.998;2023-06-10T02:51:19;1.60;;;1.00;;
13485;SDS011;6815;59.336;17.998;2023-06-10T02:53:44;3.07;;;1.23;;
13485;SDS011;6815;59.336;17.998;2023-06-10T02:56:09;7.40;;;1.97;;
13485;SDS011;6815;59.336;17.998;2023-06-10T02:58:36;2.97;;;1.60;;
13485;SDS011;6815;59.336;17.998;2023-06-10T03:01:02;5.67;;;2.20;;
13485;SDS011;6815;59.336;17.998;2023-06-10T03:03:27;4.23;;;1.97;;
13485;SDS011;6815;59.336;17.998;2023-06-10T03:05:52;6.53;;;2.67;;
13485;SDS011;6815;59.336;17.998;2023-06-10T03:08:18;6.67;;;2.60;;
13485;SDS011;6815;59.336;17.998;2023-06-10T03:10:43;6.13;;;2.50;;
13485;SDS011;6815;59.336;17.998;2023-06-10T03:13:09;7.20;;;3.00;;
13485;SDS011;6815;59.336;17.998;2023-06-10T03:15:35;7.80;;;3.27;;
13485;SDS011;6815;59.336;17.998;2023-06-10T03:18:01;9.23;;;3.60;;
13485;SDS011;6815;59.336;17.998;2023-06-10T03:20:27;9.67;;;3.70;;
13485;SDS011;6815;59.336;17.998;2023-06-10T03:22:53;8.37;;;3.80;;
13485;SDS011;6815;59.336;17.998;2023-06-10T03:25:19;8.10;;;3.43;;
13485;SDS011;6815;59.336;17.998;2023-06-10T03:27:46;10.37;;;3.93;;
13485;SDS011;6815;59.336;17.998;2023-06-10T03:30:12;8.73;;;3.90;;
13485;SDS011;6815;59.336;17.998;2023-06-10T03:32:38;9.40;;;3.57;;
13485;SDS011;6815;59.336;17.998;2023-06-10T03:35:03;9.03;;;3.90;;
13485;SDS011;6815;59.336;17.998;2023-06-10T03:37:29;10.73;;;3.87;;
13485;SDS011;6815;59.336;17.998;2023-06-10T03:39:55;9.20;;;3.40;;
13485;SDS011;6815;59.336;17.998;2023-06-10T03:42:20;10.23;;;3.97;;
13485;SDS011;6815;59.336;17.998;2023-06-10T03:44:45;9.13;;;3.43;;
13485;SDS011;6815;59.336;17.998;2023-06-10T03:47:11;9.60;;;3.43;;
13485;SDS011;6815;59.336;17.998;2023-06-10T03:49:37;7.23;;;3.20;;
13485;SDS011;6815;59.336;17.998;2023-06-10T03:52:03;5.10;;;2.90;;
13485;SDS011;6815;59.336;17.998;2023-06-10T03:54:29;5.33;;;2.20;;
13485;SDS011;6815;59.336;17.998;2023-06-10T03:56:54;5.97;;;2.57;;
13485;SDS011;6815;59.336;17.998;2023-06-10T03:59:19;5.50;;;2.87;;
13485;SDS011;6815;59.336;17.998;2023-06-10T04:01:45;6.03;;;2.73;;
13485;SDS011;6815;59.336;17.998;2023-06-10T04:04:13;5.43;;;2.80;;
13485;SDS011;6815;59.336;17.998;2023-06-10T04:06:41;7.47;;;2.30;;
13485;SDS011;6815;59.336;17.998;2023-06-10T04:09:08;4.60;;;2.03;;
13485;SDS011;6815;59.336;17.998;2023-06-10T04:11:34;6.13;;;2.33;;
13485;SDS011;6815;59.336;17.998;2023-06-10T04:14:00;8.67;;;2.43;;
13485;SDS011;6815;59.336;17.998;2023-06-10T04:16:26;6.13;;;2.70;;
13485;SDS011;6815;59.336;17.998;2023-06-10T04:18:52;7.17;;;2.63;;
13485;SDS011;6815;59.336;17.998;2023-06-10T04:21:18;4.87;;;2.87;;
13485;SDS011;6815;59.336;17.998;2023-06-10T04:23:43;6.40;;;2.80;;
13485;SDS011;6815;59.336;17.998;2023-06-10T04:26:08;5.77;;;2.53;;
13485;SDS011;6815;59.336;17.998;2023-06-10T04:28:36;10.10;;;2.83;;
13485;SDS011;6815;59.336;17.998;2023-06-10T04:31:01;7.07;;;2.77;;
13485;SDS011;6815;59.336;17.998;2023-06-10T04:33:28;5.00;;;2.67;;
13485;SDS011;6815;59.336;17.998;2023-06-10T04:35:54;6.60;;;2.80;;
13485;SDS011;6815;59.336;17.998;2023-06-10T04:38:19;7.20;;;2.70;;
13485;SDS011;6815;59.336;17.998;2023-06-10T04:40:46;6.17;;;3.00;;
13485;SDS011;6815;59.336;17.998;2023-06-10T04:43:11;8.03;;;2.60;;
13485;SDS011;6815;59.336;17.998;2023-06-10T04:45:37;6.43;;;2.80;;
13485;SDS011;6815;59.336;17.998;2023-06-10T04:48:03;4.83;;;2.53;;
13485;SDS011;6815;59.336;17.998;2023-06-10T04:50:28;10.47;;;3.17;;
13485;SDS011;6815;59.336;17.998;2023-06-10T04:52:54;6.40;;;2.80;;
13485;SDS011;6815;59.336;17.998;2023-06-10T04:55:22;5.70;;;3.00;;
13485;SDS011;6815;59.336;17.998;2023-06-10T04:57:48;7.17;;;3.10;;
13485;SDS011;6815;59.336;17.998;2023-06-10T05:00:13;7.03;;;3.20;;
13485;SDS011;6815;59.336;17.998;2023-06-10T05:02:39;7.13;;;2.87;;
13485;SDS011;6815;59.336;17.998;2023-06-10T05:05:04;7.53;;;3.50;;
13485;SDS011;6815;59.336;17.998;2023-06-10T05:07:31;7.43;;;4.13;;
13485;SDS011;6815;59.336;17.998;2023-06-10T05:09:56;8.90;;;4.67;;
13485;SDS011;6815;59.336;17.998;2023-06-10T05:12:22;13.00;;;5.33;;
13485;SDS011;6815;59.336;17.998;2023-06-10T05:14:47;13.27;;;5.07;;
13485;SDS011;6815;59.336;17.998;2023-06-10T05:17:13;7.90;;;3.90;;
13485;SDS011;6815;59.336;17.998;2023-06-10T05:19:38;11.18;;;5.00;;
13485;SDS011;6815;59.336;17.998;2023-06-10T05:22:03;8.75;;;4.07;;
13485;SDS011;6815;59.336;17.998;2023-06-10T05:24:29;10.38;;;4.45;;
13485;SDS011;6815;59.336;17.998;2023-06-10T05:26:55;9.73;;;4.63;;
13485;SDS011;6815;59.336;17.998;2023-06-10T05:29:20;7.55;;;3.67;;
13485;SDS011;6815;59.336;17.998;2023-06-10T05:31:45;11.20;;;4.22;;
13485;SDS011;6815;59.336;17.998;2023-06-10T05:34:11;8.20;;;3.50;;
13485;SDS011;6815;59.336;17.998;2023-06-10T05:36:36;9.63;;;3.28;;
13485;SDS011;6815;59.336;17.998;2023-06-10T05:39:02;5.85;;;2.15;;
13485;SDS011;6815;59.336;17.998;2023-06-10T05:41:28;4.65;;;2.30;;
13485;SDS011;6815;59.336;17.998;2023-06-10T05:43:53;5.45;;;2.60;;
13485;SDS011;6815;59.336;17.998;2023-06-10T05:46:19;6.35;;;2.78;;
13485;SDS011;6815;59.336;17.998;2023-06-10T05:48:45;4.22;;;2.08;;
13485;SDS011;6815;59.336;17.998;2023-06-10T05:51:10;4.13;;;1.83;;
13485;SDS011;6815;59.336;17.998;2023-06-10T05:53:35;3.08;;;1.98;;
13485;SDS011;6815;59.336;17.998;2023-06-10T05:56:01;4.55;;;2.05;;
13485;SDS011;6815;59.336;17.998;2023-06-10T05:58:26;2.97;;;1.65;;
13485;SDS011;6815;59.336;17.998;2023-06-10T06:00:52;3.10;;;1.75;;
13485;SDS011;6815;59.336;17.998;2023-06-10T06:03:17;2.65;;;1.20;;
13485;SDS011;6815;59.336;17.998;2023-06-10T06:05:43;2.42;;;1.40;;
13485;SDS011;6815;59.336;17.998;2023-06-10T06:08:09;3.15;;;1.33;;
13485;SDS011;6815;59.336;17.998;2023-06-10T06:10:34;2.20;;;1.00;;
13485;SDS011;6815;59.336;17.998;2023-06-10T06:13:00;3.33;;;1.25;;
13485;SDS011;6815;59.336;17.998;2023-06-10T06:15:26;2.95;;;1.05;;
13485;SDS011;6815;59.336;17.998;2023-06-10T06:17:52;1.85;;;0.90;;
13485;SDS011;6815;59.336;17.998;2023-06-10T06:20:18;2.67;;;0.70;;
13485;SDS011;6815;59.336;17.998;2023-06-10T06:22:44;1.55;;;0.80;;
13485;SDS011;6815;59.336;17.998;2023-06-10T06:25:10;2.22;;;0.85;;
13485;SDS011;6815;59.336;17.998;2023-06-10T06:27:35;1.60;;;1.27;;
13485;SDS011;6815;59.336;17.998;2023-06-10T06:30:00;0.80;;;0.60;;
13485;SDS011;6815;59.336;17.998;2023-06-10T06:32:26;1.02;;;0.60;;
13485;SDS011;6815;59.336;17.998;2023-06-10T06:34:52;0.95;;;0.57;;
13485;SDS011;6815;59.336;17.998;2023-06-10T06:37:22;1.65;;;0.60;;
13485;SDS011;6815;59.336;17.998;2023-06-10T06:39:49;1.45;;;0.90;;
13485;SDS011;6815;59.336;17.998;2023-06-10T06:42:19;1.45;;;0.90;;
13485;SDS011;6815;59.336;17.998;2023-06-10T06:44:45;1.10;;;0.82;;
13485;SDS011;6815;59.336;17.998;2023-06-10T06:47:11;0.82;;;0.65;;
13485;SDS011;6815;59.336;17.998;2023-06-10T06:49:37;0.77;;;0.57;;
13485;SDS011;6815;59.336;17.998;2023-06-10T06:52:02;0.70;;;0.65;;
13485;SDS011;6815;59.336;17.998;2023-06-10T06:54:28;2.03;;;0.70;;
13485;SDS011;6815;59.336;17.998;2023-06-10T06:56:54;1.33;;;0.60;;
13485;SDS011;6815;59.336;17.998;2023-06-10T06:59:19;0.85;;;0.68;;
13485;SDS011;6815;59.336;17.998;2023-06-10T07:01:45;0.55;;;0.52;;
13485;SDS011;6815;59.336;17.998;2023-06-10T07:04:11;0.50;;;0.50;;
13485;SDS011;6815;59.336;17.998;2023-06-10T07:06:37;0.60;;;0.60;;
13485;SDS011;6815;59.336;17.998;2023-06-10T07:09:03;2.25;;;0.60;;
13485;SDS011;6815;59.336;17.998;2023-06-10T07:11:29;1.55;;;0.60;;
13485;SDS011;6815;59.336;17.998;2023-06-10T07:13:55;1.67;;;0.57;;
13485;SDS011;6815;59.336;17.998;2023-06-10T07:16:21;0.60;;;0.60;;
13485;SDS011;6815;59.336;17.998;2023-06-10T07:18:46;1.95;;;0.68;;
13485;SDS011;6815;59.336;17.998;2023-06-10T07:21:12;1.63;;;0.55;;
13485;SDS011;6815;59.336;17.998;2023-06-10T07:23:37;0.82;;;0.63;;
13485;SDS011;6815;59.336;17.998;2023-06-10T07:26:06;2.75;;;0.65;;
13485;SDS011;6815;59.336;17.998;2023-06-10T07:28:32;0.57;;;0.57;;
13485;SDS011;6815;59.336;17.998;2023-06-10T07:30:58;0.85;;;0.80;;
13485;SDS011;6815;59.336;17.998;2023-06-10T07:33:23;0.55;;;0.55;;
13485;SDS011;6815;59.336;17.998;2023-06-10T07:35:48;0.65;;;0.65;;
13485;SDS011;6815;59.336;17.998;2023-06-10T07:38:14;1.30;;;0.60;;
13485;SDS011;6815;59.336;17.998;2023-06-10T07:40:39;0.77;;;0.60;;
13485;SDS011;6815;59.336;17.998;2023-06-10T07:43:05;0.82;;;0.60;;
13485;SDS011;6815;59.336;17.998;2023-06-10T07:45:30;0.60;;;0.60;;
13485;SDS011;6815;59.336;17.998;2023-06-10T07:47:56;1.48;;;0.80;;
13485;SDS011;6815;59.336;17.998;2023-06-10T07:50:21;1.58;;;0.82;;
13485;SDS011;6815;59.336;17.998;2023-06-10T07:52:46;1.08;;;0.68;;
13485;SDS011;6815;59.336;17.998;2023-06-10T07:55:12;0.90;;;0.60;;
13485;SDS011;6815;59.336;17.998;2023-06-10T07:57:37;1.17;;;0.57;;
13485;SDS011;6815;59.336;17.998;2023-06-10T08:00:03;1.48;;;1.05;;
13485;SDS011;6815;59.336;17.998;2023-06-10T08:02:31;0.90;;;0.65;;
13485;SDS011;6815;59.336;17.998;2023-06-10T08:04:56;1.60;;;1.02;;
13485;SDS011;6815;59.336;17.998;2023-06-10T08:07:21;1.63;;;0.70;;
13485;SDS011;6815;59.336;17.998;2023-06-10T08:09:47;2.22;;;0.82;;
13485;SDS011;6815;59.336;17.998;2023-06-10T08:12:12;0.65;;;0.65;;
13485;SDS011;6815;59.336;17.998;2023-06-10T08:14:38;0.77;;;0.57;;
13485;SDS011;6815;59.336;17.998;2023-06-10T08:17:04;1.02;;;0.63;;
13485;SDS011;6815;59.336;17.998;2023-06-10T08:19:31;0.65;;;0.50;;
13485;SDS011;6815;59.336;17.998;2023-06-10T08:21:56;0.70;;;0.65;;
13485;SDS011;6815;59.336;17.998;2023-06-10T08:24:21;0.73;;;0.73;;
13485;SDS011;6815;59.336;17.998;2023-06-10T08:26:47;1.10;;;0.70;;
13485;SDS011;6815;59.336;17.998;2023-06-10T08:29:12;3.33;;;0.70;;
13485;SDS011;6815;59.336;17.998;2023-06-10T08:31:40;2.17;;;0.70;;
13485;SDS011;6815;59.336;17.998;2023-06-10T08:34:07;1.48;;;0.60;;
13485;SDS011;6815;59.336;17.998;2023-06-10T08:36:32;1.55;;;0.93;;
13485;SDS011;6815;59.336;17.998;2023-06-10T08:38:58;1.00;;;0.60;;
13485;SDS011;6815;59.336;17.998;2023-06-10T08:41:23;3.65;;;0.60;;
13485;SDS011;6815;59.336;17.998;2023-06-10T08:44:03;0.70;;;0.68;;
13485;SDS011;6815;59.336;17.998;2023-06-10T08:46:33;1.33;;;0.52;;
13485;SDS011;6815;59.336;17.998;2023-06-10T08:49:01;1.45;;;0.75;;
13485;SDS011;6815;59.336;17.998;2023-06-10T08:51:28;0.70;;;0.70;;
13485;SDS011;6815;59.336;17.998;2023-06-10T08:53:59;0.85;;;0.85;;
13485;SDS011;6815;59.336;17.998;2023-06-10T08:56:28;2.22;;;0.80;;
13485;SDS011;6815;59.336;17.998;2023-06-10T08:58:55;2.50;;;1.05;;
13485;SDS011;6815;59.336;17.998;2023-06-10T09:01:21;2.90;;;0.75;;
13485;SDS011;6815;59.336;17.998;2023-06-10T09:03:48;1.35;;;0.68;;
13485;SDS011;6815;59.336;17.998;2023-06-10T09:06:14;0.88;;;0.75;;
13485;SDS011;6815;59.336;17.998;2023-06-10T09:08:41;0.70;;;0.70;;
13485;SDS011;6815;59.336;17.998;2023-06-10T09:11:07;0.70;;;0.68;;
13485;SDS011;6815;59.336;17.998;2023-06-10T09:13:32;0.60;;;0.60;;
13485;SDS011;6815;59.336;17.998;2023-06-10T09:15:58;2.72;;;0.80;;
13485;SDS011;6815;59.336;17.998;2023-06-10T09:18:26;1.23;;;0.70;;
13485;SDS011;6815;59.336;17.998;2023-06-10T09:20:52;1.08;;;0.85;;
13485;SDS011;6815;59.336;17.998;2023-06-10T09:23:18;1.55;;;0.60;;
13485;SDS011;6815;59.336;17.998;2023-06-10T09:25:44;0.93;;;0.70;;
13485;SDS011;6815;59.336;17.998;2023-06-10T09:28:13;1.33;;;0.70;;
13485;SDS011;6815;59.336;17.998;2023-06-10T09:30:40;0.77;;;0.60;;
13485;SDS011;6815;59.336;17.998;2023-06-10T09:33:10;1.25;;;0.70;;
13485;SDS011;6815;59.336;17.998;2023-06-10T09:35:37;2.35;;;0.80;;
13485;SDS011;6815;59.336;17.998;2023-06-10T09:38:14;0.80;;;0.80;;
13485;SDS011;6815;59.336;17.998;2023-06-10T09:40:48;1.13;;;0.70;;
13485;SDS011;6815;59.336;17.998;2023-06-10T09:43:17;1.15;;;0.88;;
13485;SDS011;6815;59.336;17.998;2023-06-10T09:45:43;0.95;;;0.60;;
13485;SDS011;6815;59.336;17.998;2023-06-10T09:48:09;1.35;;;1.02;;
13485;SDS011;6815;59.336;17.998;2023-06-10T09:50:41;0.80;;;0.75;;
13485;SDS011;6815;59.336;17.998;2023-06-10T09:53:08;2.28;;;0.73;;
13485;SDS011;6815;59.336;17.998;2023-06-10T09:55:33;0.77;;;0.70;;
13485;SDS011;6815;59.336;17.998;2023-06-10T09:57:59;0.90;;;0.65;;
13485;SDS011;6815;59.336;17.998;2023-06-10T10:00:25;0.77;;;0.77;;
13485;SDS011;6815;59.336;17.998;2023-06-10T10:02:51;2.45;;;0.73;;
13485;SDS011;6815;59.336;17.998;2023-06-10T10:05:19;0.98;;;0.80;;
13485;SDS011;6815;59.336;17.998;2023-06-10T10:07:46;1.58;;;1.02;;
13485;SDS011;6815;59.336;17.998;2023-06-10T10:10:13;2.15;;;0.85;;
13485;SDS011;6815;59.336;17.998;2023-06-10T10:12:39;1.10;;;0.73;;
13485;SDS011;6815;59.336;17.998;2023-06-10T10:15:06;2.20;;;1.30;;
13485;SDS011;6815;59.336;17.998;2023-06-10T10:17:46;2.22;;;0.77;;
13485;SDS011;6815;59.336;17.998;2023-06-10T10:20:17;1.20;;;0.93;;
13485;SDS011;6815;59.336;17.998;2023-06-10T10:22:47;0.82;;;0.70;;
13485;SDS011;6815;59.336;17.998;2023-06-10T10:25:16;0.77;;;0.70;;
13485;SDS011;6815;59.336;17.998;2023-06-10T10:27:51;0.73;;;0.70;;
13485;SDS011;6815;59.336;17.998;2023-06-10T10:30:20;0.65;;;0.60;;
13485;SDS011;6815;59.336;17.998;2023-06-10T10:33:00;0.80;;;0.80;;
13485;SDS011;6815;59.336;17.998;2023-06-10T10:35:30;1.08;;;0.70;;
13485;SDS011;6815;59.336;17.998;2023-06-10T10:37:57;0.70;;;0.70;;
13485;SDS011;6815;59.336;17.998;2023-06-10T10:40:23;1.75;;;0.77;;
13485;SDS011;6815;59.336;17.998;2023-06-10T10:42:50;0.80;;;0.80;;
13485;SDS011;6815;59.336;17.998;2023-06-10T10:45:16;1.20;;;0.73;;
13485;SDS011;6815;59.336;17.998;2023-06-10T10:47:43;1.58;;;0.70;;
13485;SDS011;6815;59.336;17.998;2023-06-10T10:50:17;1.75;;;0.80;;
13485;SDS011;6815;59.336;17.998;2023-06-10T10:52:58;0.70;;;0.70;;
13485;SDS011;6815;59.336;17.998;2023-06-10T10:55:28;3.35;;;0.80;;
13485;SDS011;6815;59.336;17.998;2023-06-10T10:57:54;1.98;;;0.80;;
13485;SDS011;6815;59.336;17.998;2023-06-10T11:00:29;1.27;;;0.75;;
13485;SDS011;6815;59.336;17.998;2023-06-10T11:03:15;0.95;;;0.70;;
13485;SDS011;6815;59.336;17.998;2023-06-10T11:05:45;2.17;;;0.80;;
13485;SDS011;6815;59.336;17.998;2023-06-10T11:08:59;0.70;;;0.70;;
13485;SDS011;6815;59.336;17.998;2023-06-10T11:11:00;1.65;;;1.05;;
13485;SDS011;6815;59.336;17.998;2023-06-10T11:16:27;0.93;;;0.88;;
13485;SDS011;6815;59.336;17.998;2023-06-10T11:18:53;4.35;;;0.95;;
13485;SDS011;6815;59.336;17.998;2023-06-10T11:21:20;3.35;;;1.00;;
13485;SDS011;6815;59.336;17.998;2023-06-10T11:23:45;3.47;;;0.80;;
13485;SDS011;6815;59.336;17.998;2023-06-10T11:31:18;2.22;;;0.70;;
13485;SDS011;6815;59.336;17.998;2023-06-10T11:33:46;1.45;;;1.00;;
13485;SDS011;6815;59.336;17.998;2023-06-10T11:36:13;1.17;;;0.90;;
13485;SDS011;6815;59.336;17.998;2023-06-10T11:38:40;1.60;;;0.82;;
13485;SDS011;6815;59.336;17.998;2023-06-10T11:41:06;1.33;;;0.98;;
13485;SDS011;6815;59.336;17.998;2023-06-10T11:43:32;1.75;;;1.27;;
13485;SDS011;6815;59.336;17.998;2023-06-10T11:45:58;1.17;;;1.08;;
13485;SDS011;6815;59.336;17.998;2023-06-10T11:48:24;0.65;;;0.60;;
13485;SDS011;6815;59.336;17.998;2023-06-10T11:50:53;1.45;;;0.80;;
13485;SDS011;6815;59.336;17.998;2023-06-10T11:53:18;0.85;;;0.70;;
13485;SDS011;6815;59.336;17.998;2023-06-10T11:55:48;1.67;;;0.98;;
13485;SDS011;6815;59.336;17.998;2023-06-10T11:58:16;1.35;;;0.80;;
13485;SDS011;6815;59.336;17.998;2023-06-10T12:00:52;0.85;;;0.85;;
13485;SDS011;6815;59.336;17.998;2023-06-10T12:03:21;2.95;;;0.90;;
13485;SDS011;6815;59.336;17.998;2023-06-10T12:05:59;1.02;;;0.80;;
13485;SDS011;6815;59.336;17.998;2023-06-10T12:08:26;1.80;;;0.75;;
13485;SDS011;6815;59.336;17.998;2023-06-10T12:10:52;1.95;;;1.20;;
13485;SDS011;6815;59.336;17.998;2023-06-10T12:13:18;1.17;;;0.85;;
13485;SDS011;6815;59.336;17.998;2023-06-10T12:15:43;1.25;;;0.90;;
13485;SDS011;6815;59.336;17.998;2023-06-10T12:18:19;0.70;;;0.70;;
13485;SDS011;6815;59.336;17.998;2023-06-10T12:20:46;2.35;;;0.98;;
13485;SDS011;6815;59.336;17.998;2023-06-10T12:23:13;2.15;;;0.93;;
13485;SDS011;6815;59.336;17.998;2023-06-10T12:25:39;1.85;;;0.85;;
13485;SDS011;6815;59.336;17.998;2023-06-10T12:28:15;1.08;;;0.80;;
13485;SDS011;6815;59.336;17.998;2023-06-10T12:30:41;1.23;;;0.90;;
13485;SDS011;6815;59.336;17.998;2023-06-10T12:33:15;2.60;;;0.90;;
13485;SDS011;6815;59.336;17.998;2023-06-10T12:35:46;1.23;;;0.85;;
13485;SDS011;6815;59.336;17.998;2023-06-10T12:38:20;1.65;;;0.90;;
13485;SDS011;6815;59.336;17.998;2023-06-10T12:40:47;1.10;;;1.00;;
13485;SDS011;6815;59.336;17.998;2023-06-10T12:43:13;1.85;;;1.00;;
13485;SDS011;6815;59.336;17.998;2023-06-10T12:45:44;1.33;;;0.90;;
13485;SDS011;6815;59.336;17.998;2023-06-10T12:48:10;0.98;;;0.80;;
13485;SDS011;6815;59.336;17.998;2023-06-10T12:50:38;1.88;;;1.00;;
13485;SDS011;6815;59.336;17.998;2023-06-10T12:53:05;1.15;;;1.00;;
13485;SDS011;6815;59.336;17.998;2023-06-10T12:55:31;1.25;;;0.88;;
13485;SDS011;6815;59.336;17.998;2023-06-10T12:57:58;2.75;;;1.17;;
13485;SDS011;6815;59.336;17.998;2023-06-10T13:00:25;0.93;;;0.80;;
13485;SDS011;6815;59.336;17.998;2023-06-10T13:02:54;2.35;;;1.10;;
13485;SDS011;6815;59.336;17.998;2023-06-10T13:05:19;1.98;;;0.80;;
13485;SDS011;6815;59.336;17.998;2023-06-10T13:07:45;1.98;;;0.90;;
13485;SDS011;6815;59.336;17.998;2023-06-10T13:10:12;1.50;;;1.00;;
13485;SDS011;6815;59.336;17.998;2023-06-10T13:12:38;2.83;;;1.05;;
13485;SDS011;6815;59.336;17.998;2023-06-10T13:15:04;1.00;;;0.90;;
13485;SDS011;6815;59.336;17.998;2023-06-10T13:17:30;2.65;;;0.90;;
13485;SDS011;6815;59.336;17.998;2023-06-10T13:19:56;0.90;;;0.90;;
13485;SDS011;6815;59.336;17.998;2023-06-10T13:22:21;1.20;;;1.08;;
13485;SDS011;6815;59.336;17.998;2023-06-10T13:24:48;2.35;;;1.10;;
13485;SDS011;6815;59.336;17.998;2023-06-10T13:27:14;1.40;;;0.95;;
13485;SDS011;6815;59.336;17.998;2023-06-10T13:29:39;3.28;;;1.10;;
13485;SDS011;6815;59.336;17.998;2023-06-10T13:32:05;1.42;;;0.88;;
13485;SDS011;6815;59.336;17.998;2023-06-10T13:34:31;3.75;;;1.10;;
13485;SDS011;6815;59.336;17.998;2023-06-10T13:36:57;2.88;;;0.90;;
13485;SDS011;6815;59.336;17.998;2023-06-10T13:39:22;2.05;;;0.80;;
13485;SDS011;6815;59.336;17.998;2023-06-10T13:41:48;2.13;;;1.00;;
13485;SDS011;6815;59.336;17.998;2023-06-10T13:44:14;0.80;;;0.70;;
13485;SDS011;6815;59.336;17.998;2023-06-10T13:46:39;0.65;;;0.65;;
13485;SDS011;6815;59.336;17.998;2023-06-10T13:49:05;0.90;;;0.68;;
13485;SDS011;6815;59.336;17.998;2023-06-10T13:51:30;5.22;;;0.80;;
13485;SDS011;6815;59.336;17.998;2023-06-10T13:53:55;1.35;;;0.65;;
13485;SDS011;6815;59.336;17.998;2023-06-10T13:56:21;2.95;;;0.93;;
13485;SDS011;6815;59.336;17.998;2023-06-10T13:58:46;1.15;;;1.02;;
13485;SDS011;6815;59.336;17.998;2023-06-10T14:01:12;2.45;;;1.10;;
13485;SDS011;6815;59.336;17.998;2023-06-10T14:03:37;1.75;;;0.80;;
13485;SDS011;6815;59.336;17.998;2023-06-10T14:06:02;3.67;;;0.70;;
13485;SDS011;6815;59.336;17.998;2023-06-10T14:08:28;2.22;;;0.98;;
13485;SDS011;6815;59.336;17.998;2023-06-10T14:10:54;1.60;;;0.90;;
13485;SDS011;6815;59.336;17.998;2023-06-10T14:13:20;3.63;;;1.05;;
13485;SDS011;6815;59.336;17.998;2023-06-10T14:15:45;1.10;;;0.90;;
13485;SDS011;6815;59.336;17.998;2023-06-10T14:18:11;1.10;;;1.00;;
13485;SDS011;6815;59.336;17.998;2023-06-10T14:20:37;1.08;;;0.93;;
13485;SDS011;6815;59.336;17.998;2023-06-10T14:23:02;1.25;;;0.80;;
13485;SDS011;6815;59.336;17.998;2023-06-10T14:25:28;1.45;;;0.90;;
13485;SDS011;6815;59.336;17.998;2023-06-10T14:27:53;3.38;;;0.93;;
13485;SDS011;6815;59.336;17.998;2023-06-10T14:30:19;2.15;;;0.88;;
13485;SDS011;6815;59.336;17.998;2023-06-10T14:32:44;1.42;;;0.95;;
13485;SDS011;6815;59.336;17.998;2023-06-10T14:35:10;1.10;;;0.80;;
13485;SDS011;6815;59.336;17.998;2023-06-10T14:37:35;1.40;;;0.85;;
13485;SDS011;6815;59.336;17.998;2023-06-10T14:40:01;0.73;;;0.70;;
13485;SDS011;6815;59.336;17.998;2023-06-10T14:42:28;2.88;;;0.80;;
13485;SDS011;6815;59.336;17.998;2023-06-10T14:44:54;2.20;;;1.38;;
13485;SDS011;6815;59.336;17.998;2023-06-10T14:47:19;2.22;;;1.10;;
13485;SDS011;6815;59.336;17.998;2023-06-10T14:49:45;1.60;;;0.70;;
13485;SDS011;6815;59.336;17.998;2023-06-10T14:52:10;1.23;;;0.90;;
13485;SDS011;6815;59.336;17.998;2023-06-10T14:54:36;1.40;;;1.10;;
13485;SDS011;6815;59.336;17.998;2023-06-10T14:57:01;1.35;;;0.90;;
13485;SDS011;6815;59.336;17.998;2023-06-10T14:59:26;1.25;;;0.90;;
13485;SDS011;6815;59.336;17.998;2023-06-10T15:01:52;3.70;;;1.00;;